createdAt,value
2023-03-25T00:00:59.751Z,0.00
2023-03-25T00:01:59.807Z,0.00
2023-03-25T00:02:59.865Z,0.00
2023-03-25T00:03:59.786Z,0.00
2023-03-25T00:04:59.826Z,0.00
2023-03-25T00:05:59.811Z,0.00
2023-03-25T00:06:59.825Z,0.00
2023-03-25T00:07:59.837Z,0.00
2023-03-25T00:08:59.849Z,0.00
2023-03-25T00:09:59.859Z,0.00
2023-03-25T00:10:59.874Z,0.00
2023-03-25T00:11:59.884Z,0.00
2023-03-25T00:12:59.898Z,0.00
2023-03-25T00:13:59.910Z,0.00
2023-03-25T00:14:59.925Z,0.00
2023-03-25T00:15:59.933Z,0.00
2023-03-25T00:17:00.018Z,0.00
2023-03-25T00:17:59.984Z,0.00
2023-03-25T00:19:00.053Z,0.00
2023-03-25T00:19:59.989Z,0.00
2023-03-25T00:20:59.996Z,0.00
2023-03-25T00:22:00.009Z,0.00
2023-03-25T00:23:00.027Z,0.00
2023-03-25T00:24:00.069Z,0.00
2023-03-25T00:25:00.048Z,0.00
2023-03-25T00:26:00.121Z,0.00
2023-03-25T00:27:00.092Z,0.00
2023-03-25T00:28:00.107Z,0.00
2023-03-25T00:29:00.119Z,0.00
2023-03-25T00:30:00.117Z,0.00
2023-03-25T00:31:00.204Z,0.00
2023-03-25T00:32:00.149Z,0.00
2023-03-25T00:33:00.168Z,0.00
2023-03-25T00:34:00.154Z,0.00
2023-03-25T00:35:00.164Z,0.00
2023-03-25T00:36:00.272Z,0.00
2023-03-25T00:37:00.193Z,0.00
2023-03-25T00:38:00.387Z,0.00
2023-03-25T00:39:00.218Z,0.00
2023-03-25T00:40:00.222Z,0.00
2023-03-25T00:41:00.237Z,0.00
2023-03-25T00:42:00.251Z,0.00
2023-03-25T00:43:00.295Z,0.00
2023-03-25T00:44:00.272Z,0.00
2023-03-25T00:45:00.289Z,0.00
2023-03-25T00:46:00.367Z,0.00
2023-03-25T00:47:00.308Z,0.00
2023-03-25T00:48:00.354Z,0.00
2023-03-25T00:49:00.372Z,0.00
2023-03-25T00:50:00.346Z,0.00
2023-03-25T00:51:00.361Z,0.00
2023-03-25T00:52:00.367Z,0.00
2023-03-25T00:53:00.380Z,0.00
2023-03-25T00:54:00.402Z,0.00
2023-03-25T00:55:00.406Z,0.00
2023-03-25T00:56:00.417Z,0.00
2023-03-25T00:57:00.443Z,0.00
2023-03-25T00:58:00.444Z,0.00
2023-03-25T00:59:00.452Z,0.00
2023-03-25T01:00:00.463Z,0.00
2023-03-25T01:01:00.479Z,0.00
2023-03-25T01:02:00.492Z,0.00
2023-03-25T01:03:00.593Z,0.00
2023-03-25T01:04:00.862Z,0.00
2023-03-25T01:05:00.533Z,0.00
2023-03-25T01:06:00.537Z,0.00
2023-03-25T01:07:00.551Z,0.00
2023-03-25T01:08:00.560Z,0.00
2023-03-25T01:09:00.584Z,0.00
2023-03-25T01:10:00.582Z,0.00
2023-03-25T01:11:00.603Z,0.00
2023-03-25T01:12:00.617Z,0.00
2023-03-25T01:13:00.629Z,0.00
2023-03-25T01:14:00.631Z,0.00
2023-03-25T01:15:00.661Z,0.00
2023-03-25T01:16:00.695Z,0.00
2023-03-25T01:17:00.675Z,0.00
2023-03-25T01:18:00.747Z,0.00
2023-03-25T01:19:00.693Z,0.00
2023-03-25T01:20:00.699Z,0.00
2023-03-25T01:21:00.723Z,0.00
2023-03-25T01:22:00.728Z,0.00
2023-03-25T01:23:00.739Z,0.00
2023-03-25T01:24:00.750Z,0.00
2023-03-25T01:25:00.765Z,0.00
2023-03-25T01:26:00.775Z,0.00
2023-03-25T01:27:00.818Z,0.00
2023-03-25T01:28:00.801Z,0.00
2023-03-25T01:29:00.815Z,0.00
2023-03-25T01:30:00.832Z,0.00
2023-03-25T01:31:00.891Z,0.00
2023-03-25T01:32:00.863Z,0.00
2023-03-25T01:33:00.949Z,0.00
2023-03-25T01:34:00.904Z,0.00
2023-03-25T01:35:00.891Z,0.00
2023-03-25T01:36:01.001Z,0.00
2023-03-25T01:37:00.913Z,0.00
2023-03-25T01:38:00.918Z,0.00
2023-03-25T01:39:00.939Z,0.00
2023-03-25T01:40:00.946Z,0.00
2023-03-25T01:41:00.956Z,0.00
2023-03-25T01:42:00.981Z,0.00
2023-03-25T01:43:00.991Z,0.00
2023-03-25T01:44:00.994Z,0.00
2023-03-25T01:45:01.010Z,0.00
2023-03-25T01:46:01.033Z,0.00
2023-03-25T01:47:01.067Z,0.00
2023-03-25T01:48:01.060Z,0.00
2023-03-25T01:49:01.049Z,0.00
2023-03-25T01:50:01.066Z,0.00
2023-03-25T01:51:01.073Z,0.00
2023-03-25T01:52:01.095Z,0.00
2023-03-25T01:53:01.097Z,0.00
2023-03-25T01:54:01.119Z,0.00
2023-03-25T01:55:01.125Z,0.00
2023-03-25T01:56:01.148Z,0.00
2023-03-25T01:57:01.192Z,0.00
2023-03-25T01:58:01.157Z,0.00
2023-03-25T01:59:01.174Z,0.00
2023-03-25T02:00:01.190Z,0.00
2023-03-25T02:01:01.241Z,0.00
2023-03-25T02:02:01.203Z,0.00
2023-03-25T02:03:01.269Z,0.00
2023-03-25T02:04:01.252Z,0.00
2023-03-25T02:05:01.239Z,0.00
2023-03-25T02:06:01.253Z,0.00
2023-03-25T02:07:01.264Z,0.00
2023-03-25T02:08:01.280Z,0.00
2023-03-25T02:09:01.287Z,0.00
2023-03-25T02:10:01.298Z,0.00
2023-03-25T02:11:01.312Z,0.00
2023-03-25T02:12:01.331Z,0.00
2023-03-25T02:13:01.333Z,0.00
2023-03-25T02:14:01.346Z,0.00
2023-03-25T02:15:01.374Z,0.00
2023-03-25T02:16:01.373Z,0.00
2023-03-25T02:17:01.381Z,0.00
2023-03-25T02:18:01.480Z,0.00
2023-03-25T02:19:01.406Z,0.00
2023-03-25T02:20:01.423Z,0.00
2023-03-25T02:21:01.427Z,0.00
2023-03-25T02:22:01.443Z,0.00
2023-03-25T02:23:01.453Z,0.00
2023-03-25T02:24:01.484Z,0.00
2023-03-25T02:25:01.498Z,0.00
2023-03-25T02:26:01.491Z,0.00
2023-03-25T02:27:01.524Z,0.00
2023-03-25T02:28:01.528Z,0.00
2023-03-25T02:29:01.531Z,0.00
2023-03-25T02:30:01.541Z,0.00
2023-03-25T02:31:01.552Z,0.00
2023-03-25T02:32:01.681Z,0.00
2023-03-25T02:33:01.618Z,0.00
2023-03-25T02:34:01.604Z,0.00
2023-03-25T02:35:01.601Z,0.00
2023-03-25T02:36:01.621Z,0.00
2023-03-25T02:37:01.626Z,0.00
2023-03-25T02:38:01.635Z,0.00
2023-03-25T02:39:01.663Z,0.00
2023-03-25T02:40:01.667Z,0.00
2023-03-25T02:41:01.671Z,0.00
2023-03-25T02:42:01.694Z,0.00
2023-03-25T02:43:01.720Z,0.00
2023-03-25T02:44:01.710Z,0.00
2023-03-25T02:45:01.729Z,0.00
2023-03-25T02:46:01.785Z,0.00
2023-03-25T02:47:01.751Z,0.00
2023-03-25T02:48:01.787Z,0.00
2023-03-25T02:49:01.786Z,0.00
2023-03-25T02:50:01.802Z,0.00
2023-03-25T02:51:01.800Z,0.00
2023-03-25T02:52:01.813Z,0.00
2023-03-25T02:53:01.821Z,0.00
2023-03-25T02:54:01.842Z,0.00
2023-03-25T02:55:01.883Z,0.00
2023-03-25T02:56:01.870Z,0.00
2023-03-25T02:57:02.015Z,0.00
2023-03-25T02:58:01.896Z,0.00
2023-03-25T02:59:01.914Z,0.00
2023-03-25T03:00:01.913Z,0.00
2023-03-25T03:01:01.942Z,0.00
2023-03-25T03:02:01.967Z,0.00
2023-03-25T03:03:02.043Z,0.00
2023-03-25T03:04:01.964Z,0.00
2023-03-25T03:05:01.975Z,0.00
2023-03-25T03:06:01.990Z,0.00
2023-03-25T03:07:02.005Z,0.00
2023-03-25T03:08:02.011Z,0.00
2023-03-25T03:09:02.022Z,0.00
2023-03-25T03:10:02.051Z,0.00
2023-03-25T03:11:02.048Z,0.00
2023-03-25T03:12:02.066Z,0.00
2023-03-25T03:13:02.074Z,0.00
2023-03-25T03:14:02.093Z,0.00
2023-03-25T03:15:02.110Z,0.00
2023-03-25T03:16:02.128Z,0.00
2023-03-25T03:17:02.257Z,0.00
2023-03-25T03:18:02.198Z,0.00
2023-03-25T03:19:02.170Z,0.00
2023-03-25T03:20:02.179Z,0.00
2023-03-25T03:21:02.175Z,0.00
2023-03-25T03:22:02.188Z,0.00
2023-03-25T03:23:02.209Z,0.00
2023-03-25T03:24:02.237Z,0.00
2023-03-25T03:25:02.225Z,0.00
2023-03-25T03:26:02.247Z,0.00
2023-03-25T03:27:02.269Z,0.00
2023-03-25T03:28:02.268Z,0.00
2023-03-25T03:29:02.275Z,0.00
2023-03-25T03:30:02.289Z,0.00
2023-03-25T03:31:02.353Z,0.00
2023-03-25T03:32:06.979Z,0.00
2023-03-25T03:33:02.370Z,0.00
2023-03-25T03:34:02.338Z,0.00
2023-03-25T03:35:02.360Z,0.00
2023-03-25T03:36:02.448Z,0.00
2023-03-25T03:37:02.374Z,0.00
2023-03-25T03:38:02.397Z,0.00
2023-03-25T03:39:02.400Z,0.00
2023-03-25T03:40:02.411Z,0.00
2023-03-25T03:41:02.427Z,0.00
2023-03-25T03:42:02.448Z,0.00
2023-03-25T03:43:02.451Z,0.00
2023-03-25T03:44:02.469Z,0.00
2023-03-25T03:45:02.474Z,0.00
2023-03-25T03:46:02.510Z,0.00
2023-03-25T03:47:02.514Z,0.00
2023-03-25T03:48:02.559Z,0.00
2023-03-25T03:49:02.525Z,0.00
2023-03-25T03:50:02.542Z,0.00
2023-03-25T03:51:02.552Z,0.00
2023-03-25T03:52:02.570Z,0.00
2023-03-25T03:53:03.144Z,0.00
2023-03-25T03:54:02.591Z,0.00
2023-03-25T03:55:02.641Z,0.00
2023-03-25T03:56:02.612Z,0.00
2023-03-25T03:57:02.684Z,0.00
2023-03-25T03:58:02.638Z,0.00
2023-03-25T03:59:02.670Z,0.00
2023-03-25T04:00:02.665Z,0.00
2023-03-25T04:01:02.677Z,0.00
2023-03-25T04:02:02.742Z,0.00
2023-03-25T04:03:02.772Z,0.00
2023-03-25T04:04:02.757Z,0.00
2023-03-25T04:05:02.725Z,0.00
2023-03-25T04:06:02.756Z,0.00
2023-03-25T04:07:02.747Z,0.00
2023-03-25T04:08:02.780Z,0.00
2023-03-25T04:09:02.779Z,0.00
2023-03-25T04:10:02.959Z,0.00
2023-03-25T04:11:02.799Z,0.00
2023-03-25T04:12:02.812Z,0.00
2023-03-25T04:13:02.825Z,0.00
2023-03-25T04:14:02.843Z,0.00
2023-03-25T04:15:02.874Z,0.00
2023-03-25T04:16:02.898Z,0.00
2023-03-25T04:17:02.869Z,0.00
2023-03-25T04:18:02.902Z,0.00
2023-03-25T04:19:02.894Z,0.00
2023-03-25T04:20:02.913Z,0.00
2023-03-25T04:21:02.930Z,0.00
2023-03-25T04:22:02.937Z,0.00
2023-03-25T04:23:02.954Z,0.00
2023-03-25T04:24:02.957Z,0.00
2023-03-25T04:25:02.968Z,0.00
2023-03-25T04:26:03.090Z,0.00
2023-03-25T04:27:03.007Z,0.00
2023-03-25T04:28:03.017Z,0.00
2023-03-25T04:29:03.016Z,0.00
2023-03-25T04:30:03.032Z,4.00
2023-03-25T04:31:03.045Z,4.00
2023-03-25T04:32:03.056Z,4.00
2023-03-25T04:33:03.149Z,4.00
2023-03-25T04:34:03.080Z,4.00
2023-03-25T04:35:03.098Z,8.00
2023-03-25T04:36:03.115Z,8.00
2023-03-25T04:37:03.118Z,12.00
2023-03-25T04:38:03.131Z,12.00
2023-03-25T04:39:03.150Z,16.00
2023-03-25T04:40:03.160Z,20.00
2023-03-25T04:41:03.203Z,24.00
2023-03-25T04:42:03.200Z,32.00
2023-03-25T04:43:03.192Z,36.00
2023-03-25T04:44:03.208Z,40.00
2023-03-25T04:45:03.220Z,52.00
2023-03-25T04:46:03.254Z,56.00
2023-03-25T04:47:03.242Z,68.00
2023-03-25T04:48:03.293Z,76.00
2023-03-25T04:49:03.266Z,92.00
2023-03-25T04:50:03.279Z,108.00
2023-03-25T04:51:03.316Z,124.00
2023-03-25T04:52:03.308Z,144.00
2023-03-25T04:53:03.318Z,172.00
2023-03-25T04:54:03.332Z,196.00
2023-03-25T04:55:03.348Z,216.00
2023-03-25T04:56:03.352Z,232.00
2023-03-25T04:57:03.406Z,244.00
2023-03-25T04:58:03.378Z,252.00
2023-03-25T04:59:03.392Z,272.00
2023-03-25T05:00:03.402Z,288.00
2023-03-25T05:01:03.515Z,312.00
2023-03-25T05:02:03.425Z,336.00
2023-03-25T05:03:03.502Z,360.00
2023-03-25T05:04:03.473Z,392.00
2023-03-25T05:05:03.459Z,436.00
2023-03-25T05:06:03.472Z,480.00
2023-03-25T05:07:03.485Z,520.00
2023-03-25T05:08:03.497Z,556.00
2023-03-25T05:09:03.513Z,592.00
2023-03-25T05:10:03.520Z,624.00
2023-03-25T05:11:03.531Z,660.00
2023-03-25T05:12:03.544Z,692.00
2023-03-25T05:13:03.565Z,724.00
2023-03-25T05:14:03.576Z,768.00
2023-03-25T05:15:03.582Z,812.00
2023-03-25T05:16:03.600Z,856.00
2023-03-25T05:17:03.605Z,904.00
2023-03-25T05:18:03.681Z,964.00
2023-03-25T05:19:03.644Z,1052.00
2023-03-25T05:20:03.643Z,1120.00
2023-03-25T05:21:03.654Z,1180.00
2023-03-25T05:22:03.668Z,1224.00
2023-03-25T05:23:03.676Z,1272.00
2023-03-25T05:24:03.688Z,1324.00
2023-03-25T05:25:03.705Z,1396.00
2023-03-25T05:26:03.727Z,1508.00
2023-03-25T05:27:03.729Z,1664.00
2023-03-25T05:28:03.737Z,1804.00
2023-03-25T05:29:03.748Z,2012.00
2023-03-25T05:30:03.767Z,2320.00
2023-03-25T05:31:03.773Z,2656.00
2023-03-25T05:32:03.834Z,2984.00
2023-03-25T05:33:03.816Z,3164.00
2023-03-25T05:34:03.808Z,3216.00
2023-03-25T05:35:03.823Z,3280.00
2023-03-25T05:36:03.853Z,3516.00
2023-03-25T05:37:03.845Z,3764.00
2023-03-25T05:38:03.859Z,4048.00
2023-03-25T05:39:03.872Z,4180.00
2023-03-25T05:40:03.907Z,3660.00
2023-03-25T05:41:03.896Z,3232.00
2023-03-25T05:42:03.910Z,3152.00
2023-03-25T05:43:03.933Z,3152.00
2023-03-25T05:44:03.931Z,3180.00
2023-03-25T05:45:03.943Z,3200.00
2023-03-25T05:46:03.986Z,3000.00
2023-03-25T05:47:03.976Z,2496.00
2023-03-25T05:48:04.009Z,1944.00
2023-03-25T05:49:03.991Z,1596.00
2023-03-25T05:50:04.006Z,1404.00
2023-03-25T05:51:04.032Z,1260.00
2023-03-25T05:52:04.034Z,1228.00
2023-03-25T05:53:04.049Z,1312.00
2023-03-25T05:54:04.058Z,1356.00
2023-03-25T05:55:04.073Z,1364.00
2023-03-25T05:56:04.085Z,1392.00
2023-03-25T05:57:04.149Z,1496.00
2023-03-25T05:58:04.110Z,1676.00
2023-03-25T05:59:04.127Z,1880.00
2023-03-25T06:00:04.137Z,2084.00
2023-03-25T06:01:04.170Z,2352.00
2023-03-25T06:02:04.183Z,2840.00
2023-03-25T06:03:04.335Z,3532.00
2023-03-25T06:04:04.211Z,4060.00
2023-03-25T06:05:04.201Z,3824.00
2023-03-25T06:06:04.216Z,3124.00
2023-03-25T06:07:04.226Z,2304.00
2023-03-25T06:08:04.245Z,1780.00
2023-03-25T06:09:04.276Z,1832.00
2023-03-25T06:10:04.301Z,2124.00
2023-03-25T06:11:04.280Z,2340.00
2023-03-25T06:12:04.293Z,2344.00
2023-03-25T06:13:04.304Z,2336.00
2023-03-25T06:14:04.319Z,2516.00
2023-03-25T06:15:04.332Z,2820.00
2023-03-25T06:16:04.372Z,3264.00
2023-03-25T06:17:04.358Z,3728.00
2023-03-25T06:18:04.412Z,4068.00
2023-03-25T06:19:04.384Z,4324.00
2023-03-25T06:20:04.393Z,4576.00
2023-03-25T06:21:04.409Z,4996.00
2023-03-25T06:22:04.428Z,5376.00
2023-03-25T06:23:04.439Z,5812.00
2023-03-25T06:24:04.448Z,6080.00
2023-03-25T06:25:04.475Z,6236.00
2023-03-25T06:26:04.477Z,6360.00
2023-03-25T06:27:04.488Z,6444.00
2023-03-25T06:28:04.498Z,6160.00
2023-03-25T06:29:04.516Z,5740.00
2023-03-25T06:30:04.557Z,5832.00
2023-03-25T06:31:04.561Z,6288.00
2023-03-25T06:32:04.558Z,6652.00
2023-03-25T06:33:04.597Z,6828.00
2023-03-25T06:34:04.580Z,6528.00
2023-03-25T06:35:04.595Z,5876.00
2023-03-25T06:36:04.722Z,5472.00
2023-03-25T06:37:04.620Z,5328.00
2023-03-25T06:38:04.635Z,5056.00
2023-03-25T06:39:04.648Z,4440.00
2023-03-25T06:40:04.664Z,3908.00
2023-03-25T06:41:04.683Z,3596.00
2023-03-25T06:42:04.703Z,3480.00
2023-03-25T06:43:04.704Z,3532.00
2023-03-25T06:44:04.715Z,3716.00
2023-03-25T06:45:04.731Z,3840.00
2023-03-25T06:46:04.776Z,3708.00
2023-03-25T06:47:04.764Z,3512.00
2023-03-25T06:48:04.769Z,3420.00
2023-03-25T06:49:04.783Z,3544.00
2023-03-25T06:50:04.799Z,4128.00
2023-03-25T06:51:04.816Z,4988.00
2023-03-25T06:52:04.824Z,5528.00
2023-03-25T06:53:04.843Z,5872.00
2023-03-25T06:54:04.858Z,6104.00
2023-03-25T06:55:04.874Z,6240.00
2023-03-25T06:56:04.878Z,5936.00
2023-03-25T06:57:04.934Z,5488.00
2023-03-25T06:58:04.912Z,5192.00
2023-03-25T06:59:04.920Z,4784.00
2023-03-25T07:00:04.933Z,4384.00
2023-03-25T07:01:04.952Z,3864.00
2023-03-25T07:02:05.040Z,3732.00
2023-03-25T07:03:04.997Z,3888.00
2023-03-25T07:04:04.990Z,3872.00
2023-03-25T07:05:05.039Z,3864.00
2023-03-25T07:06:05.025Z,3848.00
2023-03-25T07:07:05.031Z,3832.00
2023-03-25T07:08:05.044Z,3812.00
2023-03-25T07:09:05.068Z,3788.00
2023-03-25T07:10:05.071Z,3812.00
2023-03-25T07:11:05.087Z,3840.00
2023-03-25T07:12:07.006Z,3884.00
2023-03-25T07:13:05.216Z,3996.00
2023-03-25T07:14:05.126Z,4092.00
2023-03-25T07:15:05.151Z,4068.00
2023-03-25T07:16:05.165Z,4332.00
2023-03-25T07:17:05.165Z,4700.00
2023-03-25T07:18:05.263Z,4460.00
2023-03-25T07:19:05.191Z,4468.00
2023-03-25T07:20:05.207Z,4484.00
2023-03-25T07:21:05.226Z,4568.00
2023-03-25T07:22:05.239Z,4976.00
2023-03-25T07:23:05.259Z,6648.00
2023-03-25T07:24:05.273Z,6824.00
2023-03-25T07:25:05.274Z,6464.00
2023-03-25T07:26:05.288Z,6696.00
2023-03-25T07:27:05.316Z,9564.00
2023-03-25T07:28:05.618Z,9508.00
2023-03-25T07:29:05.337Z,9476.00
2023-03-25T07:30:05.350Z,10688.00
2023-03-25T07:31:05.383Z,13056.00
2023-03-25T07:32:05.367Z,13132.00
2023-03-25T07:33:05.434Z,15540.00
2023-03-25T07:34:05.395Z,18880.00
2023-03-25T07:35:05.420Z,18656.00
2023-03-25T07:36:05.464Z,19264.00
2023-03-25T07:37:05.446Z,20384.00
2023-03-25T07:38:05.454Z,14536.00
2023-03-25T07:39:05.466Z,11060.00
2023-03-25T07:40:05.484Z,10504.00
2023-03-25T07:41:05.495Z,17216.00
2023-03-25T07:42:05.511Z,18976.00
2023-03-25T07:43:05.524Z,15916.00
2023-03-25T07:44:05.541Z,13008.00
2023-03-25T07:45:05.568Z,12676.00
2023-03-25T07:46:05.619Z,14732.00
2023-03-25T07:47:05.591Z,13544.00
2023-03-25T07:48:05.643Z,10356.00
2023-03-25T07:49:05.616Z,10112.00
2023-03-25T07:50:05.645Z,11076.00
2023-03-25T07:51:05.646Z,12492.00
2023-03-25T07:52:05.663Z,13928.00
2023-03-25T07:53:05.679Z,15404.00
2023-03-25T07:54:06.420Z,16420.00
2023-03-25T07:55:05.713Z,15084.00
2023-03-25T07:56:05.724Z,13632.00
2023-03-25T07:57:05.817Z,14792.00
2023-03-25T07:58:05.758Z,15076.00
2023-03-25T07:59:05.778Z,16044.00
2023-03-25T08:00:05.785Z,14500.00
2023-03-25T08:01:05.836Z,12872.00
2023-03-25T08:02:05.834Z,12392.00
2023-03-25T08:03:05.996Z,12264.00
2023-03-25T08:04:05.877Z,11936.00
2023-03-25T08:05:05.878Z,11164.00
2023-03-25T08:06:05.883Z,11416.00
2023-03-25T08:07:05.904Z,11968.00
2023-03-25T08:08:05.916Z,12720.00
2023-03-25T08:09:05.934Z,13708.00
2023-03-25T08:10:05.950Z,13824.00
2023-03-25T08:11:05.963Z,13656.00
2023-03-25T08:12:05.977Z,13440.00
2023-03-25T08:13:05.994Z,13296.00
2023-03-25T08:14:06.013Z,13396.00
2023-03-25T08:15:06.024Z,13700.00
2023-03-25T08:16:06.063Z,14264.00
2023-03-25T08:17:06.066Z,14608.00
2023-03-25T08:18:06.111Z,14912.00
2023-03-25T08:19:06.091Z,15408.00
2023-03-25T08:20:06.104Z,15060.00
2023-03-25T08:21:06.121Z,15036.00
2023-03-25T08:22:06.157Z,15104.00
2023-03-25T08:23:06.152Z,15960.00
2023-03-25T08:24:06.167Z,16324.00
2023-03-25T08:25:06.184Z,16444.00
2023-03-25T08:26:06.206Z,17032.00
2023-03-25T08:27:13.933Z,16816.00
2023-03-25T08:28:06.241Z,16712.00
2023-03-25T08:29:06.253Z,16388.00
2023-03-25T08:30:06.273Z,15148.00
2023-03-25T08:31:06.285Z,14860.00
2023-03-25T08:32:06.339Z,14076.00
2023-03-25T08:33:06.332Z,13092.00
2023-03-25T08:34:06.334Z,13100.00
2023-03-25T08:35:06.358Z,13996.00
2023-03-25T08:36:06.399Z,13788.00
2023-03-25T08:37:06.386Z,13928.00
2023-03-25T08:38:06.413Z,15020.00
2023-03-25T08:39:06.417Z,14484.00
2023-03-25T08:40:06.437Z,15768.00
2023-03-25T08:41:06.462Z,15828.00
2023-03-25T08:42:06.467Z,15936.00
2023-03-25T08:43:06.485Z,17504.00
2023-03-25T08:44:06.508Z,18080.00
2023-03-25T08:45:06.530Z,19200.00
2023-03-25T08:46:06.565Z,20992.00
2023-03-25T08:47:06.558Z,21088.00
2023-03-25T08:48:06.590Z,17504.00
2023-03-25T08:49:06.618Z,13592.00
2023-03-25T08:50:06.617Z,13592.00
2023-03-25T08:51:06.626Z,15512.00
2023-03-25T08:52:06.641Z,18176.00
2023-03-25T08:53:06.675Z,18048.00
2023-03-25T08:54:06.683Z,13728.00
2023-03-25T08:55:06.695Z,13424.00
2023-03-25T08:56:06.712Z,16200.00
2023-03-25T08:57:06.763Z,15412.00
2023-03-25T08:58:06.754Z,14924.00
2023-03-25T08:59:06.763Z,12772.00
2023-03-25T09:00:06.780Z,10672.00
2023-03-25T09:01:06.815Z,10696.00
2023-03-25T09:02:06.883Z,9988.00
2023-03-25T09:03:06.858Z,10188.00
2023-03-25T09:04:06.851Z,11044.00
2023-03-25T09:05:06.928Z,10468.00
2023-03-25T09:06:06.890Z,12456.00
2023-03-25T09:07:11.210Z,14676.00
2023-03-25T09:08:06.920Z,15316.00
2023-03-25T09:09:06.940Z,16544.00
2023-03-25T09:10:06.956Z,18976.00
2023-03-25T09:11:06.974Z,19584.00
2023-03-25T09:12:07.001Z,18208.00
2023-03-25T09:13:07.014Z,19232.00
2023-03-25T09:14:07.025Z,19840.00
2023-03-25T09:15:07.044Z,16752.00
2023-03-25T09:16:07.084Z,15696.00
2023-03-25T09:17:07.083Z,16904.00
2023-03-25T09:18:07.128Z,18752.00
2023-03-25T09:19:07.112Z,20640.00
2023-03-25T09:20:07.131Z,24000.00
2023-03-25T09:21:07.160Z,24032.00
2023-03-25T09:22:07.175Z,20960.00
2023-03-25T09:23:07.181Z,20000.00
2023-03-25T09:24:07.200Z,15916.00
2023-03-25T09:25:07.216Z,11112.00
2023-03-25T09:26:07.237Z,8660.00
2023-03-25T09:27:07.259Z,8352.00
2023-03-25T09:28:07.274Z,9276.00
2023-03-25T09:29:07.306Z,10756.00
2023-03-25T09:30:07.305Z,11152.00
2023-03-25T09:31:07.359Z,11232.00
2023-03-25T09:32:07.347Z,12552.00
2023-03-25T09:33:07.430Z,13488.00
2023-03-25T09:34:07.378Z,15296.00
2023-03-25T09:35:07.398Z,16096.00
2023-03-25T09:36:07.452Z,17344.00
2023-03-25T09:37:07.432Z,19936.00
2023-03-25T09:38:07.449Z,20096.00
2023-03-25T09:39:07.465Z,19424.00
2023-03-25T09:40:07.484Z,20000.00
2023-03-25T09:41:07.516Z,20864.00
2023-03-25T09:42:07.522Z,20256.00
2023-03-25T09:43:07.535Z,19136.00
2023-03-25T09:44:07.551Z,18240.00
2023-03-25T09:45:11.840Z,17048.00
2023-03-25T09:46:07.649Z,15180.00
2023-03-25T09:47:07.606Z,12824.00
2023-03-25T09:48:07.642Z,13232.00
2023-03-25T09:49:07.644Z,14376.00
2023-03-25T09:50:07.661Z,18240.00
2023-03-25T09:51:07.679Z,21056.00
2023-03-25T09:52:07.694Z,21216.00
2023-03-25T09:53:07.722Z,19968.00
2023-03-25T09:54:07.731Z,19584.00
2023-03-25T09:55:07.753Z,19360.00
2023-03-25T09:56:07.768Z,18368.00
2023-03-25T09:57:07.880Z,17276.00
2023-03-25T09:58:07.806Z,16788.00
2023-03-25T09:59:07.826Z,14140.00
2023-03-25T10:00:07.848Z,14072.00
2023-03-25T10:01:07.876Z,16284.00
2023-03-25T10:02:07.993Z,16404.00
2023-03-25T10:03:08.019Z,13800.00
2023-03-25T10:04:07.914Z,10268.00
2023-03-25T10:05:07.936Z,9692.00
2023-03-25T10:06:07.966Z,9448.00
2023-03-25T10:07:07.979Z,9088.00
2023-03-25T10:08:07.988Z,10260.00
2023-03-25T10:09:08.007Z,11084.00
2023-03-25T10:10:08.027Z,12532.00
2023-03-25T10:11:08.044Z,13848.00
2023-03-25T10:12:08.058Z,17184.00
2023-03-25T10:13:08.081Z,19488.00
2023-03-25T10:14:08.104Z,20384.00
2023-03-25T10:15:08.114Z,16928.00
2023-03-25T10:16:08.203Z,13980.00
2023-03-25T10:17:08.152Z,11548.00
2023-03-25T10:18:08.196Z,8844.00
2023-03-25T10:19:08.189Z,8784.00
2023-03-25T10:20:08.207Z,10264.00
2023-03-25T10:21:08.221Z,11520.00
2023-03-25T10:22:08.241Z,10152.00
2023-03-25T10:23:08.258Z,12708.00
2023-03-25T10:24:08.274Z,14500.00
2023-03-25T10:25:08.293Z,15472.00
2023-03-25T10:26:09.094Z,17440.00
2023-03-25T10:27:08.331Z,15232.00
2023-03-25T10:28:08.355Z,13780.00
2023-03-25T10:29:08.366Z,15436.00
2023-03-25T10:30:08.385Z,16304.00
2023-03-25T10:31:08.401Z,15904.00
2023-03-25T10:32:08.424Z,15064.00
2023-03-25T10:33:08.469Z,16696.00
2023-03-25T10:34:08.455Z,16820.00
2023-03-25T10:35:08.474Z,14580.00
2023-03-25T10:36:08.526Z,12488.00
2023-03-25T10:37:08.510Z,13484.00
2023-03-25T10:38:13.784Z,14244.00
2023-03-25T10:39:08.567Z,14904.00
2023-03-25T10:40:08.563Z,12504.00
2023-03-25T10:41:08.584Z,9212.00
2023-03-25T10:42:08.618Z,10832.00
2023-03-25T10:43:08.619Z,11872.00
2023-03-25T10:44:08.634Z,10796.00
2023-03-25T10:45:08.655Z,14416.00
2023-03-25T10:46:08.718Z,14396.00
2023-03-25T10:47:08.695Z,12656.00
2023-03-25T10:48:08.705Z,11624.00
2023-03-25T10:49:08.725Z,12532.00
2023-03-25T10:50:08.745Z,11984.00
2023-03-25T10:51:08.760Z,12232.00
2023-03-25T10:52:08.778Z,14468.00
2023-03-25T10:53:08.797Z,14168.00
2023-03-25T10:54:08.821Z,12272.00
2023-03-25T10:55:08.836Z,12996.00
2023-03-25T10:56:08.851Z,16668.00
2023-03-25T10:57:08.914Z,19488.00
2023-03-25T10:58:08.891Z,18944.00
2023-03-25T10:59:08.911Z,15196.00
2023-03-25T11:00:08.926Z,14236.00
2023-03-25T11:01:08.963Z,14220.00
2023-03-25T11:02:08.982Z,14256.00
2023-03-25T11:03:09.086Z,15900.00
2023-03-25T11:04:09.005Z,15800.00
2023-03-25T11:05:09.022Z,16716.00
2023-03-25T11:06:09.028Z,15888.00
2023-03-25T11:07:09.047Z,13764.00
2023-03-25T11:08:18.520Z,14260.00
2023-03-25T11:09:09.086Z,17760.00
2023-03-25T11:10:09.106Z,18560.00
2023-03-25T11:11:09.119Z,14936.00
2023-03-25T11:12:09.137Z,13360.00
2023-03-25T11:13:09.162Z,15664.00
2023-03-25T11:14:09.173Z,17424.00
2023-03-25T11:15:09.191Z,14960.00
2023-03-25T11:16:09.281Z,11732.00
2023-03-25T11:17:09.280Z,10004.00
2023-03-25T11:18:09.276Z,9560.00
2023-03-25T11:19:09.266Z,13196.00
2023-03-25T11:20:09.281Z,15580.00
2023-03-25T11:21:09.305Z,18336.00
2023-03-25T11:22:09.325Z,18208.00
2023-03-25T11:23:09.349Z,18816.00
2023-03-25T11:24:09.356Z,17172.00
2023-03-25T11:25:09.376Z,20032.00
2023-03-25T11:26:09.401Z,23008.00
2023-03-25T11:27:09.412Z,20032.00
2023-03-25T11:28:09.427Z,20576.00
2023-03-25T11:29:09.446Z,19712.00
2023-03-25T11:30:09.465Z,16556.00
2023-03-25T11:31:09.538Z,15132.00
2023-03-25T11:32:09.509Z,14948.00
2023-03-25T11:33:11.828Z,15628.00
2023-03-25T11:34:09.575Z,13732.00
2023-03-25T11:35:09.557Z,11896.00
2023-03-25T11:36:09.622Z,10080.00
2023-03-25T11:37:09.596Z,10452.00
2023-03-25T11:38:09.613Z,10796.00
2023-03-25T11:39:11.164Z,11476.00
2023-03-25T11:40:09.649Z,10820.00
2023-03-25T11:41:09.668Z,10168.00
2023-03-25T11:42:09.688Z,10680.00
2023-03-25T11:43:09.716Z,13548.00
2023-03-25T11:44:09.725Z,16124.00
2023-03-25T11:45:09.742Z,17396.00
2023-03-25T11:46:09.804Z,17280.00
2023-03-25T11:47:09.778Z,16476.00
2023-03-25T11:48:09.835Z,15844.00
2023-03-25T11:49:09.824Z,15080.00
2023-03-25T11:50:09.836Z,14956.00
2023-03-25T11:51:09.851Z,14820.00
2023-03-25T11:52:09.871Z,14408.00
2023-03-25T11:53:09.889Z,14792.00
2023-03-25T11:54:09.907Z,16712.00
2023-03-25T11:55:09.921Z,19392.00
2023-03-25T11:56:09.942Z,19200.00
2023-03-25T11:57:10.138Z,16624.00
2023-03-25T11:58:09.977Z,15652.00
2023-03-25T11:59:09.994Z,15696.00
2023-03-25T12:00:10.009Z,16892.00
2023-03-25T12:01:10.031Z,17760.00
2023-03-25T12:02:10.051Z,16924.00
2023-03-25T12:03:10.175Z,15256.00
2023-03-25T12:04:10.082Z,14804.00
2023-03-25T12:05:10.109Z,15912.00
2023-03-25T12:06:10.149Z,18592.00
2023-03-25T12:07:10.141Z,19584.00
2023-03-25T12:08:10.157Z,18688.00
2023-03-25T12:09:10.174Z,17792.00
2023-03-25T12:10:10.190Z,17184.00
2023-03-25T12:11:10.206Z,17236.00
2023-03-25T12:12:10.229Z,17856.00
2023-03-25T12:13:10.247Z,17536.00
2023-03-25T12:14:10.261Z,17600.00
2023-03-25T12:15:10.289Z,18240.00
2023-03-25T12:16:10.311Z,18720.00
2023-03-25T12:17:10.316Z,19072.00
2023-03-25T12:18:10.341Z,20064.00
2023-03-25T12:19:10.369Z,20320.00
2023-03-25T12:20:10.378Z,19968.00
2023-03-25T12:21:10.389Z,19584.00
2023-03-25T12:22:10.413Z,20160.00
2023-03-25T12:23:10.432Z,20000.00
2023-03-25T12:24:10.448Z,19712.00